Antoine Hamelin

Antoine Hamelin

Statistiques 2021

  • Courses courues : 39
  • Nb de victoires : 5
  • Nb de places : 12
  • Écart gagnant : 10
  • Réussite à la gagne : 13%
  • Réussite à la place : 31%
Musique : 3p 3p 8p 13p 2p 7p 12p 6p 8p 2p 1p 7p 1p 1p 1p 13p 4p 1p

Antoine Hamelin en quelques mots

Antoine Hamelin est né le 11 juin 1991. Fils de restaurateurs, rien ne le prédestinait à une telle carrière. Il entre à l’AFASEC du Moulin à Vent à Gouvieux et rejoint l’écurie de Jean De Roualle comme apprenti.

Par la suite, le jeune jockey entre au service de Cédric Boutin puis d’Alain de Royer Dupré. Il monte également en course pour Jean-Luc Guillochon, Patrick Chevillard et Jean-Pierre Gauvin.

Le 2 avril 2012, Antoine Hamelin remporte sa 70e victoire synonyme de perte de décharge et de passage dans le rang des professionnels.

Une semaine plus tard, il décroche son premier Groupe III dans le Prix La Force en selle sur Saonois, pensionnaire de Jean-Pierre Gauvin. Le 3 juin 2012, Antoine Hamelin triomphe dans le Prix du Jockey Club (G.I) avec ce dernier.

DateRangCatégorieAlloc.Dist.HippodromeChevalPoidsSpé.
24/01/21 3 Galop 173 611€ Hk-Sha Tin Dublin Star 54,5 Plat
24/01/21 3 Galop 254 629€ Hk-Sha Tin Tianchi Monster 53,5 Plat
24/01/21 8 Galop 1 388 888€ Hk-Sha Tin The Summit 57 Plat
24/01/21 13 Galop 173 611€ Hk-Sha Tin Entrusted 54,5 Plat
24/01/21 2 Galop 1 388 888€ Hk-Sha Tin Regency Legend 57 Plat
24/01/21 7 Galop 115 740€ Hk-Sha Tin Apex Top 55 Plat
24/01/21 12 Galop 115 740€ Hk-Sha Tin Red Elysees 59,5 Plat
20/01/21 6 Galop 173 611€ Hk-Happy Valley Falcon Turbo 58 Plat
20/01/21 8 Galop 86 805€ Hk-Happy Valley Telecom Missile 57 Plat
20/01/21 2 Galop 115 740€ Hk-Happy Valley Dollar Reward 54,5 Plat
17/01/21 1 Galop 173 611€ Hk-Sha Tin Tempest Express 54 Plat
17/01/21 7 Galop 254 629€ Hk-Sha Tin Mega Heart 54,5 Plat
17/01/21 1 Galop 173 611€ Hk-Sha Tin Hongkong Great 53 Plat
17/01/21 1 Galop 173 611€ Hk-Sha Tin Ping Hai Bravo 60 Plat
17/01/21 1 Galop 115 740€ Hk-Sha Tin Family Folks 56,5 Plat
17/01/21 13 Galop 115 740€ Hk-Sha Tin Steel Win 57,5 Plat
17/01/21 4 Galop 115 740€ Hk-Sha Tin Crown Avenue 56,5 Plat
17/01/21 1 Galop 115 740€ Hk-Sha Tin Golden Link 59 Plat
17/01/21 8 Galop 86 805€ Hk-Sha Tin Blazing Partners 54,5 Plat
13/01/21 11 Galop 173 611€ Hk-Happy Valley Momentum Galaxy 53 Plat
13/01/21 6 Galop 173 611€ Hk-Happy Valley Surrealism 56 Plat
13/01/21 9 Galop 115 740€ Hk-Happy Valley Sea Elite 58 Plat
13/01/21 12 Galop 115 740€ Hk-Happy Valley Winwin Thirtythree 52,5 Plat
13/01/21 5 Galop 86 805€ Hk-Happy Valley Bulb Elite 59 Plat
13/01/21 9 Galop 115 740€ Hk-Happy Valley Owners'Star 57,5 Plat
10/01/21 13 Galop 254 629€ Hk-Sha Tin Racing Fighter 54,5 Plat
10/01/21 3 Galop 173 611€ Hk-Sha Tin Entrusted 53,5 Plat
10/01/21 4 Galop 173 611€ Hk-Sha Tin Take What You Need 52,5 Plat
10/01/21 6 Galop 173 611€ Hk-Sha Tin Farshad 54,5 Plat
10/01/21 7 Galop 115 740€ Hk-Sha Tin Goko 56 Plat
10/01/21 12 Galop 115 740€ Hk-Sha Tin Comfort Life 56,5 Plat
06/01/21 11 Galop 173 611€ Hk-Happy Valley Blastoise 58 Plat
06/01/21 8 Galop 173 611€ Hk-Happy Valley First Responder 54 Plat
06/01/21 2 Galop 173 611€ Hk-Happy Valley Wild West Wing 53 Plat
06/01/21 9 Galop 115 740€ Hk-Happy Valley Pakistan Zindabad 56 Plat
06/01/21 8 Galop 86 805€ Hk-Happy Valley Golden Mission 56 Plat
01/01/21 5 Galop 254 629€ Hk-Sha Tin Star Shine 59 Plat
01/01/21 8 Galop 173 611€ Hk-Sha Tin Flying Sword 55 Plat
26/12/20 13 Galop 173 611€ Hk-Sha Tin Circuit Seven 58,5 Plat
26/12/20 11 Galop 254 629€ Hk-Sha Tin Berlin Tango 56,5 Plat
26/12/20 2 Galop 254 629€ Hk-Sha Tin Tianchi Monster 53 Plat
26/12/20 13 Galop 115 740€ Hk-Sha Tin Telecom Rocket 59 Plat
26/12/20 3 Galop 115 740€ Hk-Sha Tin Crown Avenue 56 Plat
23/12/20 8 Galop 254 629€ Hk-Happy Valley Mega Heart 54,5 Plat
23/12/20 4 Galop 173 611€ Hk-Happy Valley Mig Energy 59,5 Plat
23/12/20 7 Galop 173 611€ Hk-Happy Valley Namjong Plus 59,5 Plat
23/12/20 10 Galop 173 611€ Hk-Happy Valley Man Star 56,5 Plat
23/12/20 10 Galop 115 740€ Hk-Happy Valley Strong Alliance 56,5 Plat
23/12/20 12 Galop 115 740€ Hk-Happy Valley Sea Elite 56,5 Plat
23/12/20 5 Galop 115 740€ Hk-Happy Valley Methane 59,5 Plat